Time;durP1;ratioP1;P1;durP2;ratioP2;P2;SDS_P1;SDS_P2;PMS_P1;PMS_P2;Temp;Humidity;BMP_temperature;BMP_pressure;BME280_temperature;BME280_humidity;BME280_pressure;Samples;Min_cycle;Max_cycle;Signal;HPM_P1;HPM_P2
2022/08/07 00:01:43;;;;;;;4.28;3.63;;;;;;;;;;5000998;28;20125;-72
2022/08/07 00:04:09;;;;;;;5.13;3.42;;;;;;;;;;5006775;28;20129;-72
2022/08/07 00:06:36;;;;;;;3.97;3.58;;;;;;;;;;5012631;28;20363;-72
2022/08/07 00:09:02;;;;;;;5.03;3.28;;;;;;;;;;5008497;28;20192;-72
2022/08/07 00:11:28;;;;;;;3.65;3.25;;;;;;;;;;5014648;28;20022;-73
2022/08/07 00:13:55;;;;;;;3.45;3.22;;;;;;;;;;5013576;28;20464;-73
2022/08/07 00:16:21;;;;;;;4.50;3.30;;;;;;;;;;5014038;28;20425;-73
2022/08/07 00:18:47;;;;;;;3.55;3.25;;;;;;;;;;5011544;28;20474;-73
2022/08/07 00:21:14;;;;;;;3.70;3.35;;;;;;;;;;5009465;28;20493;-73
2022/08/07 00:23:40;;;;;;;3.70;3.40;;;;;;;;;;5012727;28;20038;-73
2022/08/07 00:26:08;;;;;;;4.10;3.00;;;;;;;;;;5008945;28;20036;-73
2022/08/07 00:28:34;;;;;;;3.67;3.33;;;;;;;;;;5013070;28;20103;-73
2022/08/07 00:31:04;;;;;;;3.40;3.20;;;;;;;;;;5014703;28;20130;-73
2022/08/07 00:33:30;;;;;;;4.97;3.28;;;;;;;;;;5011685;28;20097;-72
2022/08/07 00:35:56;;;;;;;4.35;3.00;;;;;;;;;;5014572;28;20024;-73
2022/08/07 00:38:23;;;;;;;3.50;3.20;;;;;;;;;;5013611;28;20033;-72
2022/08/07 00:40:50;;;;;;;4.38;3.28;;;;;;;;;;5016380;28;20025;-72
2022/08/07 00:43:16;;;;;;;3.42;3.10;;;;;;;;;;5009020;28;20045;-72
2022/08/07 00:45:42;;;;;;;3.40;3.10;;;;;;;;;;5016160;28;20140;-72
2022/08/07 00:48:10;;;;;;;3.00;2.78;;;;;;;;;;5013325;28;20018;-72
2022/08/07 00:50:36;;;;;;;3.72;3.42;;;;;;;;;;5016777;28;20021;-72
2022/08/07 00:53:03;;;;;;;3.55;3.20;;;;;;;;;;5014490;28;20022;-72
2022/08/07 00:55:29;;;;;;;3.20;3.00;;;;;;;;;;5009248;28;20018;-72
2022/08/07 00:57:55;;;;;;;3.55;3.25;;;;;;;;;;5014522;28;20021;-72
2022/08/07 01:00:22;;;;;;;3.72;3.00;;;;;;;;;;5004921;28;20014;-72
2022/08/07 01:02:49;;;;;;;2.90;2.70;;;;;;;;;;5010185;28;20721;-72
2022/08/07 01:05:16;;;;;;;3.15;2.60;;;;;;;;;;5009440;28;20022;-72
2022/08/07 01:07:42;;;;;;;2.88;2.67;;;;;;;;;;5014625;28;20026;-73
2022/08/07 01:10:08;;;;;;;3.13;2.67;;;;;;;;;;5007014;28;20040;-72
2022/08/07 01:12:36;;;;;;;3.47;2.63;;;;;;;;;;5014853;28;20025;-72
2022/08/07 01:15:03;;;;;;;3.08;2.53;;;;;;;;;;5005695;28;20029;-72
2022/08/07 01:17:30;;;;;;;3.13;2.50;;;;;;;;;;5010200;28;20021;-72
2022/08/07 01:20:01;;;;;;;2.58;2.38;;;;;;;;;;5010555;28;20355;-72
2022/08/07 01:22:27;;;;;;;4.38;2.70;;;;;;;;;;5012780;28;20042;-72
2022/08/07 01:24:53;;;;;;;2.50;2.30;;;;;;;;;;5010920;28;20029;-72
2022/08/07 01:27:20;;;;;;;3.95;2.67;;;;;;;;;;5013376;28;20527;-73
2022/08/07 01:29:46;;;;;;;2.85;2.55;;;;;;;;;;5009137;28;20030;-72
2022/08/07 01:32:12;;;;;;;2.55;2.35;;;;;;;;;;5013407;28;20494;-72
2022/08/07 01:34:43;;;;;;;4.28;2.42;;;;;;;;;;5014106;28;20447;-72
2022/08/07 01:37:11;;;;;;;2.55;2.35;;;;;;;;;;5012676;28;20030;-72
2022/08/07 01:39:37;;;;;;;2.63;2.42;;;;;;;;;;5008968;28;20018;-72
2022/08/07 01:42:03;;;;;;;4.07;2.50;;;;;;;;;;5011099;28;20100;-72
2022/08/07 01:44:29;;;;;;;2.78;2.58;;;;;;;;;;5008896;28;20038;-72
2022/08/07 01:46:57;;;;;;;3.13;2.50;;;;;;;;;;5011588;28;20030;-72
2022/08/07 01:49:23;;;;;;;2.70;2.45;;;;;;;;;;5012713;28;20036;-72
2022/08/07 01:51:50;;;;;;;2.90;2.60;;;;;;;;;;5010352;28;20028;-72
2022/08/07 01:54:19;;;;;;;5.20;2.65;;;;;;;;;;5012139;28;20037;-73
2022/08/07 01:56:51;;;;;;;2.90;2.60;;;;;;;;;;5009377;28;20033;-72
2022/08/07 01:59:22;;;;;;;4.20;2.10;;;;;;;;;;5005491;28;20084;-72
2022/08/07 02:01:52;;;;;;;2.95;2.30;;;;;;;;;;5004361;28;20030;-72
2022/08/07 02:04:24;;;;;;;2.70;2.50;;;;;;;;;;5004030;28;20034;-72
2022/08/07 02:06:49;;;;;;;;;;;;;;;;;;5000044;28;20022;-71
2022/08/07 02:09:18;;;;;;;2.75;2.55;;;;;;;;;;5005029;28;19948;-72
2022/08/07 02:11:45;;;;;;;2.70;2.50;;;;;;;;;;5005554;28;20069;-71
2022/08/07 02:14:12;;;;;;;2.65;2.42;;;;;;;;;;5005218;28;20374;-71
2022/08/07 02:16:39;;;;;;;3.92;2.70;;;;;;;;;;4995673;28;20025;-71
2022/08/07 02:19:10;;;;;;;3.60;2.75;;;;;;;;;;5007022;28;20091;-71
2022/08/07 02:21:40;;;;;;;3.00;2.40;;;;;;;;;;5001538;28;20101;-71
2022/08/07 02:24:07;;;;;;;3.10;2.70;;;;;;;;;;5006826;28;20112;-71
2022/08/07 02:26:33;;;;;;;3.40;2.50;;;;;;;;;;5004480;28;20265;-71
2022/08/07 02:29:01;;;;;;;3.15;2.60;;;;;;;;;;4998430;28;20059;-71
2022/08/07 02:31:27;;;;;;;3.00;2.55;;;;;;;;;;5008997;28;20041;-71
2022/08/07 02:33:55;;;;;;;4.35;2.80;;;;;;;;;;5004457;28;20025;-71
2022/08/07 02:36:22;;;;;;;2.97;2.67;;;;;;;;;;5003581;28;20271;-71
2022/08/07 02:38:49;;;;;;;3.08;2.80;;;;;;;;;;5003455;28;20027;-71
2022/08/07 02:41:15;;;;;;;7.68;2.60;;;;;;;;;;5005848;28;20350;-71
2022/08/07 02:43:42;;;;;;;2.85;2.65;;;;;;;;;;5009229;28;20030;-71
2022/08/07 02:46:09;;;;;;;3.35;2.80;;;;;;;;;;5005767;28;20025;-71
2022/08/07 02:48:36;;;;;;;2.85;2.65;;;;;;;;;;5007530;28;20017;-71
2022/08/07 02:51:05;;;;;;;3.35;2.80;;;;;;;;;;5005148;28;20084;-71
2022/08/07 02:53:32;;;;;;;3.38;3.08;;;;;;;;;;5007735;28;20031;-71
2022/08/07 02:55:59;;;;;;;3.40;3.10;;;;;;;;;;5004673;28;20033;-71
2022/08/07 02:58:26;;;;;;;3.45;3.10;;;;;;;;;;5006156;28;20030;-71
2022/08/07 03:00:54;;;;;;;3.30;3.00;;;;;;;;;;5012079;28;20079;-71
2022/08/07 03:03:21;;;;;;;4.68;3.08;;;;;;;;;;5008177;28;20048;-71
2022/08/07 03:05:49;;;;;;;3.47;3.10;;;;;;;;;;5003855;28;20095;-71
2022/08/07 03:08:16;;;;;;;3.42;3.13;;;;;;;;;;5003912;28;20040;-71
2022/08/07 03:10:44;;;;;;;3.55;3.20;;;;;;;;;;5006070;28;20088;-71
2022/08/07 03:13:11;;;;;;;3.40;3.10;;;;;;;;;;5005650;28;20060;-71
2022/08/07 03:15:37;;;;;;;3.75;3.42;;;;;;;;;;5005059;28;21073;-72
2022/08/07 03:18:03;;;;;;;3.67;3.38;;;;;;;;;;5005514;28;20026;-71
2022/08/07 03:20:29;;;;;;;3.80;3.25;;;;;;;;;;5007042;28;20017;-71
2022/08/07 03:22:57;;;;;;;3.78;3.00;;;;;;;;;;5005427;28;20049;-71
2022/08/07 03:25:24;;;;;;;5.88;3.60;;;;;;;;;;5001896;28;20415;-71
2022/08/07 03:27:51;;;;;;;3.97;3.67;;;;;;;;;;4999686;28;20049;-71
2022/08/07 03:30:18;;;;;;;3.97;3.67;;;;;;;;;;4998434;28;20312;-71
2022/08/07 03:32:46;;;;;;;4.15;3.80;;;;;;;;;;5001478;28;20069;-71
2022/08/07 03:35:14;;;;;;;4.20;3.90;;;;;;;;;;5002189;28;20025;-72
2022/08/07 03:37:42;;;;;;;4.18;3.80;;;;;;;;;;4998702;28;20092;-71
2022/08/07 03:40:09;;;;;;;4.80;4.40;;;;;;;;;;4993880;28;20407;-71
2022/08/07 03:42:35;;;;;;;4.20;3.85;;;;;;;;;;5000597;28;20475;-71
2022/08/07 03:45:02;;;;;;;4.20;3.80;;;;;;;;;;5010024;28;20303;-71
2022/08/07 03:47:28;;;;;;;4.47;3.90;;;;;;;;;;5007937;28;20080;-71
2022/08/07 03:49:56;;;;;;;4.45;4.05;;;;;;;;;;5008569;28;20113;-71
2022/08/07 03:52:23;;;;;;;4.30;4.00;;;;;;;;;;5006194;28;20025;-71
2022/08/07 03:54:49;;;;;;;5.32;4.90;;;;;;;;;;5008438;28;20484;-71
2022/08/07 03:57:16;;;;;;;5.35;4.90;;;;;;;;;;5009668;28;20061;-71
2022/08/07 03:59:42;;;;;;;5.10;4.70;;;;;;;;;;5005829;28;20032;-71
2022/08/07 04:02:09;;;;;;;5.10;4.70;;;;;;;;;;5007358;28;20551;-71
2022/08/07 04:04:35;;;;;;;5.18;4.78;;;;;;;;;;5005323;28;20579;-71
2022/08/07 04:07:01;;;;;;;5.65;5.18;;;;;;;;;;5008469;28;20021;-71
2022/08/07 04:09:27;;;;;;;5.80;5.25;;;;;;;;;;5001564;28;20496;-71
2022/08/07 04:11:54;;;;;;;6.18;5.60;;;;;;;;;;5000936;28;20088;-71
2022/08/07 04:14:21;;;;;;;5.88;5.38;;;;;;;;;;4998058;28;20160;-71
2022/08/07 04:16:48;;;;;;;6.32;5.82;;;;;;;;;;5004388;28;20026;-71
2022/08/07 04:19:14;;;;;;;6.47;5.97;;;;;;;;;;5007816;28;20257;-71
2022/08/07 04:21:40;;;;;;;6.40;5.90;;;;;;;;;;5004192;28;20232;-71
2022/08/07 04:24:09;;;;;;;11.77;6.40;;;;;;;;;;5002717;28;20045;-71
2022/08/07 04:26:38;;;;;;;6.47;5.90;;;;;;;;;;5007956;28;20080;-71
2022/08/07 04:29:06;;;;;;;6.05;5.55;;;;;;;;;;5006138;28;20046;-71
2022/08/07 04:31:32;;;;;;;6.60;6.07;;;;;;;;;;5005417;28;20021;-71
2022/08/07 04:33:58;;;;;;;6.05;5.53;;;;;;;;;;5005080;28;20300;-71
2022/08/07 04:36:25;;;;;;;5.90;5.40;;;;;;;;;;5002093;28;20150;-71
2022/08/07 04:38:51;;;;;;;5.97;5.57;;;;;;;;;;5006026;28;20026;-72
2022/08/07 04:41:17;;;;;;;6.00;5.53;;;;;;;;;;4999342;28;20017;-72
2022/08/07 04:43:45;;;;;;;9.63;5.82;;;;;;;;;;5008317;28;20041;-72
2022/08/07 04:46:11;;;;;;;6.88;6.18;;;;;;;;;;5006886;28;20048;-71
2022/08/07 04:48:56;;;;;;;6.85;6.20;;;;;;;;;;5004176;28;20036;-72
2022/08/07 04:51:28;;;;;;;6.20;5.70;;;;;;;;;;5010096;28;20283;-72
2022/08/07 04:53:59;;;;;;;6.60;6.10;;;;;;;;;;5005066;28;20030;-72
2022/08/07 04:56:51;;;;;;;6.80;5.95;;;;;;;;;;5008955;28;20049;-72
2022/08/07 04:59:32;;;;;;;6.38;5.88;;;;;;;;;;5001117;28;20799;-71
2022/08/07 05:02:34;;;;;;;8.95;4.97;;;;;;;;;;5005428;28;20160;-72
2022/08/07 05:05:05;;;;;;;10.25;5.72;;;;;;;;;;4961387;28;20562;-71
2022/08/07 05:07:31;;;;;;;5.10;4.70;;;;;;;;;;4995753;28;20022;-72
2022/08/07 05:09:57;;;;;;;4.80;4.32;;;;;;;;;;5012459;28;21269;-71
2022/08/07 05:12:28;;;;;;;4.30;3.90;;;;;;;;;;5009004;28;20022;-71
2022/08/07 05:14:56;;;;;;;4.70;4.07;;;;;;;;;;5002721;28;20036;-71
2022/08/07 05:17:24;;;;;;;5.07;4.20;;;;;;;;;;5008050;28;20109;-71
2022/08/07 05:19:51;;;;;;;5.32;4.82;;;;;;;;;;4996175;28;20170;-71
2022/08/07 05:22:19;;;;;;;8.60;6.00;;;;;;;;;;5002054;28;20033;-71
2022/08/07 05:24:46;;;;;;;6.55;5.30;;;;;;;;;;5004207;28;20117;-71
2022/08/07 05:27:14;;;;;;;5.63;5.20;;;;;;;;;;5002361;28;20017;-70
2022/08/07 05:29:42;;;;;;;4.45;4.10;;;;;;;;;;5011849;28;20473;-72
2022/08/07 05:32:08;;;;;;;5.45;4.95;;;;;;;;;;5006192;28;20024;-73
2022/08/07 05:34:38;;;;;;;5.25;4.80;;;;;;;;;;5004261;28;20017;-73
2022/08/07 05:37:05;;;;;;;5.15;4.75;;;;;;;;;;5003985;28;20109;-72
2022/08/07 05:39:31;;;;;;;5.55;5.15;;;;;;;;;;4995898;28;20061;-72
2022/08/07 05:41:57;;;;;;;6.30;5.70;;;;;;;;;;5000373;28;20129;-72
2022/08/07 05:44:24;;;;;;;6.50;5.95;;;;;;;;;;5002567;28;20092;-72
2022/08/07 05:46:50;;;;;;;6.95;6.35;;;;;;;;;;5003285;28;20030;-72
2022/08/07 05:49:17;;;;;;;9.77;8.75;;;;;;;;;;5006169;28;20030;-72
2022/08/07 05:51:44;;;;;;;11.10;9.82;;;;;;;;;;5011476;28;20057;-72
2022/08/07 05:54:11;;;;;;;11.30;8.75;;;;;;;;;;5006062;28;20354;-72
2022/08/07 05:56:38;;;;;;;8.05;6.30;;;;;;;;;;5010017;28;20044;-72
2022/08/07 05:59:08;;;;;;;6.32;5.70;;;;;;;;;;5004111;28;20813;-72
2022/08/07 06:01:35;;;;;;;6.38;5.78;;;;;;;;;;5005346;28;20120;-72
2022/08/07 06:04:03;;;;;;;6.85;6.15;;;;;;;;;;5006911;28;20048;-71
2022/08/07 06:06:31;;;;;;;7.47;6.45;;;;;;;;;;4999261;28;20489;-72
2022/08/07 06:08:57;;;;;;;7.65;6.20;;;;;;;;;;5003859;28;20466;-72
2022/08/07 06:11:24;;;;;;;5.97;5.32;;;;;;;;;;5003096;28;20025;-72
2022/08/07 06:13:50;;;;;;;7.57;6.63;;;;;;;;;;5005169;28;20072;-72
2022/08/07 06:16:17;;;;;;;6.60;6.07;;;;;;;;;;4998584;28;20076;-72
2022/08/07 06:18:44;;;;;;;6.47;5.88;;;;;;;;;;5004907;28;20033;-71
2022/08/07 06:21:12;;;;;;;6.85;6.35;;;;;;;;;;5005089;28;20756;-72
2022/08/07 06:23:38;;;;;;;6.72;6.13;;;;;;;;;;4999025;28;20042;-72
2022/08/07 06:26:06;;;;;;;6.25;5.75;;;;;;;;;;5005029;28;20544;-71
2022/08/07 06:28:32;;;;;;;6.35;5.85;;;;;;;;;;4997597;28;20525;-71
2022/08/07 06:30:58;;;;;;;6.63;5.78;;;;;;;;;;5005233;28;20035;-72
2022/08/07 06:33:25;;;;;;;6.22;5.72;;;;;;;;;;5002476;28;20045;-71
2022/08/07 06:35:51;;;;;;;6.50;6.00;;;;;;;;;;5001132;28;20026;-72
2022/08/07 06:38:17;;;;;;;7.70;5.75;;;;;;;;;;5000710;28;20030;-72
2022/08/07 06:40:46;;;;;;;6.85;6.07;;;;;;;;;;5008644;28;20026;-71
2022/08/07 06:43:13;;;;;;;6.90;6.40;;;;;;;;;;4999169;28;20057;-72
2022/08/07 06:45:39;;;;;;;5.93;5.43;;;;;;;;;;4998209;28;20212;-71
2022/08/07 06:48:05;;;;;;;6.88;6.38;;;;;;;;;;4999368;28;20044;-71
2022/08/07 06:50:32;;;;;;;6.22;5.75;;;;;;;;;;5008141;28;20105;-71
2022/08/07 06:53:00;;;;;;;6.03;5.57;;;;;;;;;;4997584;28;20046;-71
2022/08/07 06:55:28;;;;;;;5.65;5.25;;;;;;;;;;5008963;28;20618;-71
2022/08/07 06:57:57;;;;;;;5.70;5.30;;;;;;;;;;5004221;28;20029;-71
2022/08/07 07:00:23;;;;;;;6.32;5.80;;;;;;;;;;5006252;28;20549;-71
2022/08/07 07:02:50;;;;;;;6.82;6.32;;;;;;;;;;5007378;28;20040;-71
2022/08/07 07:05:20;;;;;;;6.28;5.72;;;;;;;;;;5006956;28;20025;-71
2022/08/07 07:07:46;;;;;;;6.05;5.60;;;;;;;;;;5009487;28;20540;-71
2022/08/07 07:10:13;;;;;;;6.47;5.97;;;;;;;;;;5004951;28;20064;-71
2022/08/07 07:12:39;;;;;;;6.10;5.50;;;;;;;;;;5008866;28;20041;-71
2022/08/07 07:15:11;;;;;;;5.80;5.20;;;;;;;;;;5007951;28;20030;-71
2022/08/07 07:17:47;;;;;;;5.85;5.40;;;;;;;;;;5011305;28;20033;-71
2022/08/07 07:20:20;;;;;;;5.40;5.00;;;;;;;;;;5010946;28;20041;-71
2022/08/07 07:22:47;;;;;;;6.10;5.60;;;;;;;;;;5016093;28;20048;-71
2022/08/07 07:25:15;;;;;;;5.72;5.32;;;;;;;;;;5007927;28;20455;-71
2022/08/07 07:27:44;;;;;;;5.65;5.13;;;;;;;;;;5004569;28;20058;-71
2022/08/07 07:30:11;;;;;;;5.38;4.85;;;;;;;;;;5007136;28;20029;-71
2022/08/07 07:32:38;;;;;;;5.70;5.20;;;;;;;;;;5010350;28;20509;-71
2022/08/07 07:35:05;;;;;;;6.82;5.45;;;;;;;;;;5000298;28;20018;-71
2022/08/07 07:37:33;;;;;;;5.70;5.13;;;;;;;;;;5009468;28;20026;-71
2022/08/07 07:40:01;;;;;;;5.68;4.97;;;;;;;;;;5005214;28;20513;-71
2022/08/07 07:42:27;;;;;;;4.97;4.53;;;;;;;;;;5002123;28;20048;-71
2022/08/07 07:44:55;;;;;;;5.07;4.68;;;;;;;;;;5009748;28;20402;-71
2022/08/07 07:47:21;;;;;;;5.10;4.80;;;;;;;;;;5006776;28;20051;-71
2022/08/07 07:49:48;;;;;;;4.70;4.38;;;;;;;;;;5009117;28;20029;-71
2022/08/07 07:52:15;;;;;;;5.20;4.80;;;;;;;;;;5007779;28;20037;-71
2022/08/07 07:54:42;;;;;;;5.07;4.68;;;;;;;;;;5016215;28;20037;-71
2022/08/07 07:57:09;;;;;;;4.15;3.85;;;;;;;;;;5010801;28;20033;-71
2022/08/07 07:59:39;;;;;;;4.63;4.32;;;;;;;;;;5013239;28;20097;-73
2022/08/07 08:02:06;;;;;;;5.43;4.95;;;;;;;;;;5003565;28;20037;-71
2022/08/07 08:04:33;;;;;;;4.68;4.28;;;;;;;;;;5006188;28;20026;-71
2022/08/07 08:07:00;;;;;;;5.13;4.72;;;;;;;;;;5010203;28;20021;-71
2022/08/07 08:09:27;;;;;;;5.43;4.93;;;;;;;;;;5007143;28;20018;-71
2022/08/07 08:11:53;;;;;;;4.70;4.30;;;;;;;;;;5012417;28;20029;-71
2022/08/07 08:14:20;;;;;;;4.20;3.90;;;;;;;;;;5011415;28;20465;-71
2022/08/07 08:16:46;;;;;;;4.50;4.10;;;;;;;;;;5008026;28;20493;-71
2022/08/07 08:19:17;;;;;;;4.80;4.40;;;;;;;;;;5011982;28;20450;-71
2022/08/07 08:27:18;;;;;;;5.18;4.68;;;;;;;;;;5005610;28;20123;-71
2022/08/07 08:29:49;;;;;;;4.68;4.38;;;;;;;;;;5003872;28;20042;-71
2022/08/07 08:32:17;;;;;;;7.45;4.68;;;;;;;;;;4996416;28;20405;-73
2022/08/07 08:34:45;;;;;;;4.95;4.40;;;;;;;;;;5002399;28;20438;-70
2022/08/07 08:37:12;;;;;;;4.65;4.25;;;;;;;;;;5004467;28;20154;-71
2022/08/07 08:39:39;;;;;;;4.30;3.88;;;;;;;;;;5008632;28;20013;-71
2022/08/07 08:42:11;;;;;;;5.10;4.70;;;;;;;;;;5006738;28;20053;-71
2022/08/07 08:44:48;;;;;;;4.97;4.57;;;;;;;;;;5005484;28;20034;-71
2022/08/07 08:47:21;;;;;;;4.68;4.38;;;;;;;;;;5007384;28;20033;-71
2022/08/07 08:50:01;;;;;;;4.80;4.40;;;;;;;;;;5010992;28;20049;-71
2022/08/07 08:52:32;;;;;;;4.32;4.03;;;;;;;;;;5006347;28;20037;-71
2022/08/07 08:54:58;;;;;;;4.68;4.28;;;;;;;;;;5006914;28;20394;-71
2022/08/07 08:57:31;;;;;;;4.63;4.07;;;;;;;;;;5005205;28;20037;-72
2022/08/07 09:00:03;;;;;;;4.50;4.10;;;;;;;;;;5006909;28;20025;-71
2022/08/07 09:02:30;;;;;;;4.35;4.00;;;;;;;;;;5007271;28;20473;-71
2022/08/07 09:04:56;;;;;;;4.05;3.75;;;;;;;;;;5008548;28;20525;-71
2022/08/07 09:07:51;;;;;;;4.32;4.03;;;;;;;;;;5003660;28;20036;-71
2022/08/07 09:10:23;;;;;;;4.30;4.00;;;;;;;;;;5001898;28;20054;-71
2022/08/07 09:13:09;;;;;;;4.22;3.92;;;;;;;;;;5004796;28;20132;-71
2022/08/07 09:16:05;;;;;;;4.70;4.30;;;;;;;;;;4998381;28;20467;-71
2022/08/07 09:18:35;;;;;;;4.30;4.00;;;;;;;;;;5000675;28;20034;-71
2022/08/07 09:21:17;;;;;;;4.95;4.15;;;;;;;;;;5011166;28;20044;-70
2022/08/07 09:24:06;;;;;;;5.22;4.20;;;;;;;;;;5007596;28;20121;-70
2022/08/07 09:26:32;;;;;;;4.22;3.83;;;;;;;;;;5007243;28;20607;-71
2022/08/07 09:29:25;;;;;;;4.47;3.65;;;;;;;;;;5009723;28;20107;-71
2022/08/07 09:31:55;;;;;;;3.95;3.65;;;;;;;;;;5003135;28;20038;-70
2022/08/07 09:34:48;;;;;;;3.85;3.55;;;;;;;;;;5006693;28;20036;-71
2022/08/07 09:37:20;;;;;;;4.47;4.07;;;;;;;;;;4996664;28;20465;-71
2022/08/07 09:39:49;;;;;;;4.47;3.80;;;;;;;;;;5004186;28;20076;-71
2022/08/07 09:42:35;;;;;;;4.07;3.78;;;;;;;;;;4997569;28;20477;-71
2022/08/07 09:45:01;;;;;;;4.30;3.90;;;;;;;;;;4978784;28;20038;-71
2022/08/07 09:47:37;;;;;;;4.25;3.67;;;;;;;;;;5004747;28;20048;-71
2022/08/07 09:50:08;;;;;;;4.20;3.35;;;;;;;;;;5009693;28;20044;-70
2022/08/07 09:52:50;;;;;;;4.00;3.70;;;;;;;;;;5006197;28;20029;-71
2022/08/07 09:55:44;;;;;;;4.20;3.80;;;;;;;;;;5003667;28;20036;-71
2022/08/07 09:58:22;;;;;;;4.18;3.28;;;;;;;;;;5003517;28;20036;-71
2022/08/07 10:01:04;;;;;;;4.28;3.85;;;;;;;;;;5001075;28;20014;-71
2022/08/07 10:03:49;;;;;;;4.25;3.58;;;;;;;;;;5005248;28;20133;-71
2022/08/07 10:06:18;;;;;;;4.38;3.70;;;;;;;;;;5005272;28;20257;-71
2022/08/07 10:08:56;;;;;;;4.15;3.75;;;;;;;;;;5004105;28;20097;-71
2022/08/07 10:11:41;;;;;;;4.10;3.70;;;;;;;;;;5008714;28;20407;-71
2022/08/07 10:14:21;;;;;;;3.80;3.50;;;;;;;;;;5001543;28;20085;-71
2022/08/07 10:16:47;;;;;;;3.83;3.53;;;;;;;;;;5001631;28;20026;-71
2022/08/07 10:19:17;;;;;;;3.80;3.50;;;;;;;;;;5008681;28;20017;-71
2022/08/07 10:21:46;;;;;;;4.07;3.67;;;;;;;;;;5009025;28;20036;-71
2022/08/07 10:24:35;;;;;;;5.38;3.47;;;;;;;;;;5008605;28;20029;-71
2022/08/07 10:27:04;;;;;;;3.60;3.30;;;;;;;;;;5009418;28;20056;-71
2022/08/07 10:29:47;;;;;;;3.60;3.30;;;;;;;;;;5011544;28;20560;-71
2022/08/07 10:32:32;;;;;;;6.28;3.10;;;;;;;;;;5004493;28;20490;-71
2022/08/07 10:35:15;;;;;;;3.50;3.20;;;;;;;;;;5003641;28;20100;-71
2022/08/07 10:37:51;;;;;;;3.67;3.38;;;;;;;;;;5008483;28;20032;-71
2022/08/07 10:40:21;;;;;;;3.17;2.97;;;;;;;;;;5002529;28;20029;-71
2022/08/07 10:43:06;;;;;;;3.38;3.08;;;;;;;;;;5003212;28;20504;-70
2022/08/07 10:45:39;;;;;;;3.22;2.95;;;;;;;;;;5001786;28;20257;-71
2022/08/07 10:48:11;;;;;;;3.63;3.00;;;;;;;;;;5008392;28;20605;-71
2022/08/07 10:50:43;;;;;;;3.40;3.10;;;;;;;;;;5005924;28;20489;-71
2022/08/07 10:53:15;;;;;;;3.20;3.00;;;;;;;;;;5010509;28;20014;-71
2022/08/07 10:55:44;;;;;;;3.42;3.05;;;;;;;;;;5003386;28;20034;-71
2022/08/07 10:58:31;;;;;;;3.20;2.90;;;;;;;;;;5005544;28;20493;-71
2022/08/07 11:01:15;;;;;;;3.15;2.85;;;;;;;;;;5004621;28;20021;-71
2022/08/07 11:03:45;;;;;;;5.82;3.30;;;;;;;;;;5006399;28;20041;-71
2022/08/07 11:06:16;;;;;;;4.35;3.90;;;;;;;;;;5004831;28;20093;-71
2022/08/07 11:08:52;;;;;;;4.13;3.83;;;;;;;;;;4998273;28;20544;-71
2022/08/07 11:11:25;;;;;;;4.47;3.72;;;;;;;;;;5000378;28;20022;-71
2022/08/07 11:13:53;;;;;;;4.13;3.72;;;;;;;;;;5003664;28;20068;-71
2022/08/07 11:16:26;;;;;;;4.30;3.83;;;;;;;;;;5005844;28;20411;-71
2022/08/07 11:18:58;;;;;;;4.10;3.72;;;;;;;;;;5004214;28;20018;-71
2022/08/07 11:21:31;;;;;;;4.25;3.85;;;;;;;;;;5005491;28;20033;-71
2022/08/07 11:23:58;;;;;;;4.25;3.78;;;;;;;;;;5006612;28;20046;-71
2022/08/07 11:26:39;;;;;;;4.40;4.00;;;;;;;;;;5005245;28;20022;-71
2022/08/07 11:29:10;;;;;;;4.65;3.65;;;;;;;;;;5005620;28;20134;-70
2022/08/07 11:31:41;;;;;;;4.00;3.65;;;;;;;;;;5000621;28;20265;-71
2022/08/07 11:34:26;;;;;;;3.17;2.88;;;;;;;;;;5003447;28;20029;-70
2022/08/07 11:36:52;;;;;;;3.58;3.17;;;;;;;;;;5005726;28;20289;-71
2022/08/07 11:39:37;;;;;;;4.07;3.42;;;;;;;;;;5005905;28;20594;-71
2022/08/07 11:42:12;;;;;;;3.28;2.97;;;;;;;;;;4987258;28;20077;-71
2022/08/07 11:44:48;;;;;;;3.20;2.90;;;;;;;;;;4998256;28;20032;-71
2022/08/07 11:47:33;;;;;;;3.28;2.90;;;;;;;;;;4999207;28;20065;-71
2022/08/07 11:50:08;;;;;;;3.67;2.90;;;;;;;;;;5001068;28;20037;-71
2022/08/07 11:52:55;;;;;;;3.33;3.03;;;;;;;;;;5003269;28;20034;-71
2022/08/07 11:55:30;;;;;;;3.40;3.05;;;;;;;;;;5005604;28;20021;-71
2022/08/07 11:58:05;;;;;;;4.05;3.08;;;;;;;;;;4998724;28;20109;-71
2022/08/07 12:00:36;;;;;;;2.92;2.63;;;;;;;;;;5004992;28;20101;-71
2022/08/07 12:03:02;;;;;;;4.05;3.03;;;;;;;;;;5003682;28;20033;-72
2022/08/07 12:05:38;;;;;;;3.47;3.03;;;;;;;;;;5008366;28;20013;-71
2022/08/07 12:08:04;;;;;;;3.13;2.83;;;;;;;;;;4996490;28;20040;-72
2022/08/07 12:10:35;;;;;;;3.60;3.20;;;;;;;;;;5007682;28;20018;-72
2022/08/07 12:13:20;;;;;;;3.25;2.90;;;;;;;;;;5008138;28;20686;-71
2022/08/07 12:15:55;;;;;;;3.20;2.90;;;;;;;;;;5006724;28;20503;-71
2022/08/07 12:18:21;;;;;;;3.03;2.83;;;;;;;;;;5008813;28;20466;-72
2022/08/07 12:20:51;;;;;;;3.20;2.50;;;;;;;;;;5004650;28;20351;-71
2022/08/07 12:23:31;;;;;;;3.22;2.92;;;;;;;;;;5003651;28;20034;-71
2022/08/07 12:26:01;;;;;;;3.38;3.08;;;;;;;;;;5011472;28;20030;-71
2022/08/07 12:28:46;;;;;;;4.03;3.20;;;;;;;;;;5010047;28;20417;-72
2022/08/07 12:31:16;;;;;;;3.88;2.70;;;;;;;;;;5010669;28;20421;-71
2022/08/07 12:33:44;;;;;;;2.80;2.60;;;;;;;;;;5004258;28;20109;-71
2022/08/07 12:36:11;;;;;;;2.90;2.70;;;;;;;;;;5009049;28;20034;-71
2022/08/07 12:38:39;;;;;;;3.28;3.00;;;;;;;;;;5008574;28;20327;-71
2022/08/07 12:41:06;;;;;;;4.97;3.10;;;;;;;;;;5007034;28;20053;-71
2022/08/07 12:43:34;;;;;;;3.28;2.97;;;;;;;;;;5009739;28;20405;-71
2022/08/07 12:46:06;;;;;;;2.92;2.58;;;;;;;;;;5010485;28;20869;-72
2022/08/07 12:48:47;;;;;;;2.72;2.53;;;;;;;;;;5009835;28;20072;-71
2022/08/07 12:51:15;;;;;;;2.97;2.63;;;;;;;;;;5003428;28;20182;-71
2022/08/07 12:53:44;;;;;;;4.20;2.55;;;;;;;;;;5002425;28;20030;-71
2022/08/07 12:56:16;;;;;;;2.70;2.50;;;;;;;;;;5003813;28;20018;-71
2022/08/07 12:58:45;;;;;;;2.78;2.40;;;;;;;;;;5009741;28;20033;-71
2022/08/07 13:01:11;;;;;;;2.30;2.10;;;;;;;;;;5003539;28;20410;-71
2022/08/07 13:03:56;;;;;;;3.10;2.50;;;;;;;;;;5010492;28;20380;-71
2022/08/07 13:06:29;;;;;;;2.67;2.47;;;;;;;;;;5003195;28;20112;-71
2022/08/07 13:09:22;;;;;;;2.80;2.53;;;;;;;;;;5006413;28;20325;-71
2022/08/07 13:11:51;;;;;;;2.60;2.40;;;;;;;;;;5003446;28;20033;-71
2022/08/07 13:14:21;;;;;;;2.65;2.45;;;;;;;;;;5007051;28;20801;-71
2022/08/07 13:16:59;;;;;;;3.10;2.90;;;;;;;;;;5004411;28;20033;-71
2022/08/07 13:19:33;;;;;;;3.10;2.85;;;;;;;;;;5011901;28;20025;-71
2022/08/07 13:22:01;;;;;;;2.90;2.53;;;;;;;;;;5004172;28;20469;-71
2022/08/07 13:24:34;;;;;;;5.65;2.95;;;;;;;;;;5000385;28;20128;-71
2022/08/07 13:27:07;;;;;;;3.28;3.03;;;;;;;;;;5006055;28;20025;-71
2022/08/07 13:29:40;;;;;;;4.05;2.70;;;;;;;;;;5012004;28;20052;-72
2022/08/07 13:32:20;;;;;;;4.35;2.95;;;;;;;;;;5007099;28;20033;-71
2022/08/07 13:34:59;;;;;;;5.57;3.10;;;;;;;;;;5007691;28;20440;-71
2022/08/07 13:37:45;;;;;;;4.88;3.13;;;;;;;;;;5005416;28;20685;-71
2022/08/07 13:40:20;;;;;;;4.50;3.60;;;;;;;;;;5007563;28;20189;-72
2022/08/07 13:42:49;;;;;;;3.60;3.30;;;;;;;;;;5009695;28;20120;-71
2022/08/07 13:45:16;;;;;;;3.90;3.60;;;;;;;;;;5007615;28;20014;-71
2022/08/07 13:47:42;;;;;;;4.95;3.67;;;;;;;;;;5009194;28;20556;-71
2022/08/07 13:50:09;;;;;;;4.70;3.40;;;;;;;;;;5011017;28;20432;-71
2022/08/07 13:52:40;;;;;;;3.20;3.00;;;;;;;;;;4996446;28;20044;-71
2022/08/07 13:55:18;;;;;;;3.53;3.20;;;;;;;;;;5005075;28;20280;-71
2022/08/07 13:57:45;;;;;;;4.15;3.55;;;;;;;;;;5001423;28;20038;-71
2022/08/07 14:00:11;;;;;;;3.72;3.42;;;;;;;;;;5005096;28;20592;-71
2022/08/07 14:02:39;;;;;;;3.75;3.45;;;;;;;;;;5005996;28;20218;-71
2022/08/07 14:05:09;;;;;;;4.15;3.55;;;;;;;;;;5003750;28;20022;-71
2022/08/07 14:07:46;;;;;;;4.05;3.67;;;;;;;;;;5003813;28;20068;-71
2022/08/07 14:10:13;;;;;;;3.60;3.30;;;;;;;;;;5002649;28;20029;-71
2022/08/07 14:12:57;;;;;;;3.80;3.50;;;;;;;;;;5002175;28;20014;-71
2022/08/07 14:15:35;;;;;;;4.35;3.55;;;;;;;;;;5000740;28;20028;-71
2022/08/07 14:18:07;;;;;;;3.45;3.25;;;;;;;;;;4998637;28;20029;-71
2022/08/07 14:20:36;;;;;;;6.05;3.35;;;;;;;;;;5005151;28;20021;-71
2022/08/07 14:23:07;;;;;;;3.83;3.20;;;;;;;;;;5008631;28;20037;-71
2022/08/07 14:25:34;;;;;;;3.40;3.10;;;;;;;;;;5009451;28;20024;-71
2022/08/07 14:28:04;;;;;;;3.30;3.05;;;;;;;;;;5007072;28;20187;-71
2022/08/07 14:30:30;;;;;;;3.20;3.00;;;;;;;;;;5008206;28;20017;-70
2022/08/07 14:32:57;;;;;;;3.55;3.13;;;;;;;;;;5005851;28;20105;-71
2022/08/07 14:35:26;;;;;;;3.80;2.95;;;;;;;;;;5005923;28;20587;-71
2022/08/07 14:37:52;;;;;;;3.00;2.80;;;;;;;;;;5008230;28;20032;-71
2022/08/07 14:40:20;;;;;;;3.15;2.95;;;;;;;;;;5007453;28;20732;-71
2022/08/07 14:42:52;;;;;;;3.42;3.10;;;;;;;;;;5010691;28;20037;-71
2022/08/07 14:45:18;;;;;;;3.65;3.30;;;;;;;;;;5004461;28;20279;-73
2022/08/07 14:47:46;;;;;;;4.60;2.85;;;;;;;;;;5007591;28;20496;-70
2022/08/07 14:50:17;;;;;;;3.42;3.15;;;;;;;;;;5010983;28;20022;-71
2022/08/07 14:52:44;;;;;;;3.35;3.08;;;;;;;;;;5007642;28;20025;-71
2022/08/07 14:55:12;;;;;;;3.90;3.53;;;;;;;;;;5010811;28;20876;-70
2022/08/07 14:57:39;;;;;;;3.13;2.92;;;;;;;;;;5004285;28;20104;-71
2022/08/07 15:00:07;;;;;;;3.50;3.03;;;;;;;;;;5005939;28;20057;-71
2022/08/07 15:02:37;;;;;;;4.82;3.25;;;;;;;;;;4999040;28;20030;-70
2022/08/07 15:05:04;;;;;;;3.50;3.20;;;;;;;;;;5001027;28;20033;-71
2022/08/07 15:07:30;;;;;;;3.78;3.35;;;;;;;;;;5006597;28;20013;-71